createdAt,value
2017-12-04T00:01:32.707Z,39.63
2017-12-04T00:03:58.955Z,36.38
2017-12-04T00:06:25.192Z,35.15
2017-12-04T00:08:51.428Z,31.70
2017-12-04T00:11:17.675Z,37.83
2017-12-04T00:13:43.912Z,33.95
2017-12-04T00:16:10.149Z,37.92
2017-12-04T00:18:36.419Z,43.92
2017-12-04T00:21:02.656Z,45.22
2017-12-04T00:23:28.877Z,39.40
2017-12-04T00:25:55.068Z,40.25
2017-12-04T00:28:21.320Z,38.95
2017-12-04T00:30:47.524Z,36.83
2017-12-04T00:33:13.755Z,31.12
2017-12-04T00:35:39.982Z,33.22
2017-12-04T00:38:06.199Z,36.15
2017-12-04T00:40:32.404Z,34.55
2017-12-04T00:42:58.622Z,35.72
2017-12-04T00:45:24.817Z,32.70
2017-12-04T00:47:51.062Z,30.92
2017-12-04T00:50:17.252Z,30.83
2017-12-04T00:52:43.625Z,30.35
2017-12-04T00:55:09.839Z,30.10
2017-12-04T00:57:36.027Z,29.67
2017-12-04T01:00:02.265Z,30.65
2017-12-04T01:02:28.527Z,30.70
2017-12-04T01:04:54.732Z,34.50
2017-12-04T01:07:20.949Z,29.02
2017-12-04T01:09:47.168Z,29.60
2017-12-04T01:12:13.387Z,28.80
2017-12-04T01:14:39.955Z,28.92
2017-12-04T01:17:06.196Z,27.20
2017-12-04T01:19:32.431Z,27.98
2017-12-04T01:21:58.697Z,25.70
2017-12-04T01:24:24.898Z,23.58
2017-12-04T01:26:51.177Z,28.45
2017-12-04T01:29:17.442Z,28.52
2017-12-04T01:31:43.648Z,29.95
2017-12-04T01:34:10.377Z,28.02
2017-12-04T01:36:36.586Z,27.83
2017-12-04T01:39:03.250Z,26.30
2017-12-04T01:41:29.827Z,26.37
2017-12-04T01:43:56.054Z,23.23
2017-12-04T01:46:22.273Z,25.75
2017-12-04T01:48:48.522Z,27.95
2017-12-04T01:51:14.759Z,29.92
2017-12-04T01:53:40.979Z,25.33
2017-12-04T01:56:07.193Z,27.75
2017-12-04T01:58:33.458Z,29.52
2017-12-04T02:01:00.070Z,30.67
2017-12-04T02:03:26.296Z,27.75
2017-12-04T02:05:52.511Z,28.95
2017-12-04T02:08:18.759Z,31.70
2017-12-04T02:10:44.981Z,29.33
2017-12-04T02:13:11.209Z,27.77
2017-12-04T02:15:37.459Z,27.48
2017-12-04T02:18:04.067Z,27.33
2017-12-04T02:20:30.331Z,23.10
2017-12-04T02:22:56.924Z,27.90
2017-12-04T02:25:23.182Z,22.45
2017-12-04T02:27:49.458Z,23.75
2017-12-04T02:30:15.726Z,23.15
2017-12-04T02:32:42.023Z,27.05
2017-12-04T02:35:08.258Z,24.70
2017-12-04T02:37:34.487Z,27.85
2017-12-04T02:40:00.749Z,25.05
2017-12-04T02:42:26.985Z,30.88
2017-12-04T02:44:53.231Z,26.55
2017-12-04T02:47:19.858Z,25.17
2017-12-04T02:49:46.463Z,25.52
2017-12-04T02:52:12.731Z,28.85
2017-12-04T02:54:39.344Z,26.45
2017-12-04T02:57:05.579Z,27.33
2017-12-04T02:59:31.811Z,26.12
2017-12-04T03:01:57.992Z,20.98
2017-12-04T03:04:24.217Z,27.10
2017-12-04T03:06:50.416Z,27.25
2017-12-04T03:09:16.623Z,25.58
2017-12-04T03:11:42.864Z,21.08
2017-12-04T03:14:09.092Z,25.20
2017-12-04T03:16:35.325Z,26.42
2017-12-04T03:19:01.571Z,27.13
2017-12-04T03:21:27.813Z,25.83
2017-12-04T03:23:54.077Z,25.20
2017-12-04T03:26:20.304Z,29.33
2017-12-04T03:28:46.565Z,25.75
2017-12-04T03:31:13.193Z,29.02
2017-12-04T03:33:39.776Z,22.35
2017-12-04T03:36:05.995Z,20.75
2017-12-04T03:38:32.240Z,21.33
2017-12-04T03:40:58.557Z,27.67
2017-12-04T03:43:24.789Z,30.70
2017-12-04T03:45:51.071Z,25.95
2017-12-04T03:48:17.297Z,25.20
2017-12-04T03:50:43.487Z,27.83
2017-12-04T03:53:09.692Z,29.48
2017-12-04T03:55:35.912Z,26.48
2017-12-04T03:58:02.117Z,35.25
2017-12-04T04:00:28.724Z,30.60
2017-12-04T04:02:54.928Z,23.98
2017-12-04T04:05:21.137Z,22.60
2017-12-04T04:07:47.346Z,22.90
2017-12-04T04:10:13.574Z,25.77
2017-12-04T04:12:39.781Z,22.55
2017-12-04T04:15:06.375Z,24.23
2017-12-04T04:17:32.585Z,23.58
2017-12-04T04:19:58.804Z,24.67
2017-12-04T04:22:25.019Z,23.02
2017-12-04T04:24:51.235Z,26.15
2017-12-04T04:27:17.843Z,25.33
2017-12-04T04:29:44.053Z,28.95
2017-12-04T04:32:10.261Z,27.55
2017-12-04T04:34:36.480Z,24.60
2017-12-04T04:37:02.689Z,23.58
2017-12-04T04:39:28.936Z,28.38
2017-12-04T04:41:55.146Z,23.77
2017-12-04T04:44:21.664Z,28.30
2017-12-04T04:46:48.236Z,27.67
2017-12-04T04:49:14.467Z,27.85
2017-12-04T04:51:40.747Z,29.63
2017-12-04T04:54:07.106Z,31.40
2017-12-04T04:56:33.405Z,33.88
2017-12-04T04:58:59.716Z,30.98
2017-12-04T05:01:25.981Z,32.47
2017-12-04T05:03:52.603Z,38.90
2017-12-04T05:06:19.270Z,40.53
2017-12-04T05:08:45.531Z,36.25
2017-12-04T05:11:11.758Z,35.38
2017-12-04T05:13:37.996Z,37.42
2017-12-04T05:16:04.227Z,37.28
2017-12-04T05:18:30.482Z,33.50
2017-12-04T05:20:56.763Z,33.20
2017-12-04T05:23:22.970Z,36.08
2017-12-04T05:25:49.199Z,34.13
2017-12-04T05:28:15.449Z,37.40
2017-12-04T05:30:41.682Z,41.70
2017-12-04T05:33:07.888Z,35.45
2017-12-04T05:35:34.107Z,37.70
2017-12-04T05:38:00.299Z,39.42
2017-12-04T05:40:26.485Z,35.88
2017-12-04T05:42:52.700Z,37.30
2017-12-04T05:45:18.967Z,36.10
2017-12-04T05:47:45.190Z,37.75
2017-12-04T05:50:11.420Z,34.13
2017-12-04T05:52:37.643Z,32.40
2017-12-04T05:55:03.873Z,33.28
2017-12-04T05:57:30.081Z,32.72
2017-12-04T05:59:56.280Z,27.33
2017-12-04T06:02:22.522Z,30.23
2017-12-04T06:04:48.720Z,30.65
2017-12-04T06:07:15.307Z,31.83
2017-12-04T06:09:41.513Z,36.08
2017-12-04T06:12:07.737Z,33.47
2017-12-04T06:14:33.956Z,31.98
2017-12-04T06:17:00.202Z,39.03
2017-12-04T06:19:26.479Z,35.47
2017-12-04T06:21:52.732Z,37.80
2017-12-04T06:24:19.322Z,37.65
2017-12-04T06:26:45.533Z,39.45
2017-12-04T06:29:11.756Z,34.72
2017-12-04T06:31:37.971Z,41.30
2017-12-04T06:34:04.178Z,36.60
2017-12-04T06:36:30.773Z,35.55
2017-12-04T06:38:56.996Z,38.50
2017-12-04T06:41:23.228Z,33.88
2017-12-04T06:43:49.484Z,37.80
2017-12-04T06:46:15.707Z,35.25
2017-12-04T06:48:41.976Z,32.95
2017-12-04T06:51:08.199Z,38.42
2017-12-04T06:53:34.391Z,35.92
2017-12-04T06:56:00.615Z,36.67
2017-12-04T06:58:26.807Z,41.63
2017-12-04T07:00:53.024Z,36.38
2017-12-04T07:03:19.228Z,35.22
2017-12-04T07:05:45.826Z,30.62
2017-12-04T07:08:12.028Z,37.05
2017-12-04T07:10:38.255Z,34.20
2017-12-04T07:13:04.511Z,38.05
2017-12-04T07:15:30.704Z,36.15
2017-12-04T07:17:56.923Z,36.13
2017-12-04T07:20:23.532Z,41.50
2017-12-04T07:22:50.117Z,35.72
2017-12-04T07:25:16.329Z,35.17
2017-12-04T07:27:42.577Z,33.95
2017-12-04T07:30:08.792Z,34.85
2017-12-04T07:32:35.023Z,34.60
2017-12-04T07:35:01.235Z,41.37
2017-12-04T07:37:27.427Z,38.00
2017-12-04T07:39:54.023Z,40.65
2017-12-04T07:42:20.260Z,36.58
2017-12-04T07:44:46.486Z,42.67
2017-12-04T07:47:12.722Z,41.05
2017-12-04T07:49:38.918Z,42.42
2017-12-04T07:52:05.128Z,41.65
2017-12-04T07:54:31.758Z,37.60
2017-12-04T07:56:57.961Z,36.80
2017-12-04T07:59:24.565Z,41.10
2017-12-04T08:01:50.780Z,37.08
2017-12-04T08:04:17.006Z,38.70
2017-12-04T08:06:43.250Z,40.83
2017-12-04T08:09:09.486Z,36.10
2017-12-04T08:11:35.721Z,35.55
2017-12-04T08:14:01.993Z,32.85
2017-12-04T08:16:28.207Z,33.45
2017-12-04T08:18:54.449Z,34.03
2017-12-04T08:21:20.689Z,38.47
2017-12-04T08:23:46.930Z,35.17
2017-12-04T08:26:13.152Z,40.85
2017-12-04T08:28:39.382Z,35.65
2017-12-04T08:31:05.594Z,40.28
2017-12-04T08:33:31.797Z,37.40
2017-12-04T08:35:58.379Z,38.05
2017-12-04T08:38:24.596Z,41.67
2017-12-04T08:40:50.849Z,34.92
2017-12-04T08:43:17.058Z,35.92
2017-12-04T08:45:43.264Z,32.70
2017-12-04T08:48:09.492Z,28.00
2017-12-04T08:50:35.730Z,33.80
2017-12-04T08:53:01.992Z,34.40
2017-12-04T08:55:28.239Z,34.20
2017-12-04T08:57:54.431Z,34.95
2017-12-04T09:00:20.672Z,28.60
2017-12-04T09:02:46.913Z,25.15
2017-12-04T09:05:13.171Z,28.58
2017-12-04T09:07:39.466Z,30.25
2017-12-04T09:10:05.782Z,26.55
2017-12-04T09:12:32.005Z,31.80
2017-12-04T09:14:58.255Z,28.60
2017-12-04T09:17:24.510Z,25.30
2017-12-04T09:19:51.155Z,30.25
2017-12-04T09:22:18.894Z,27.85
2017-12-04T09:24:45.116Z,27.23
2017-12-04T09:27:11.353Z,26.90
2017-12-04T09:29:37.601Z,25.08
2017-12-04T09:32:04.217Z,26.83
2017-12-04T09:34:30.476Z,27.37
2017-12-04T09:36:57.101Z,25.02
2017-12-04T09:39:23.719Z,25.73
2017-12-04T09:41:49.983Z,27.20
2017-12-04T09:44:16.575Z,25.92
2017-12-04T09:46:42.816Z,26.12
2017-12-04T09:49:09.098Z,29.35
2017-12-04T09:51:35.345Z,27.42
2017-12-04T09:54:01.649Z,28.12
2017-12-04T09:56:27.880Z,29.70
2017-12-04T09:58:54.111Z,28.38
2017-12-04T10:01:20.352Z,28.05
2017-12-04T10:03:46.598Z,31.85
2017-12-04T10:06:12.851Z,34.67
2017-12-04T10:08:39.135Z,29.23
2017-12-04T10:11:05.406Z,27.67
2017-12-04T10:13:31.728Z,27.30
2017-12-04T10:15:57.984Z,33.42
2017-12-04T10:18:24.646Z,29.10
2017-12-04T10:20:50.925Z,26.40
2017-12-04T10:23:17.175Z,28.12
2017-12-04T10:25:43.392Z,22.52
2017-12-04T10:28:09.648Z,25.30
2017-12-04T10:30:35.908Z,21.10
2017-12-04T10:33:02.126Z,22.58
2017-12-04T10:35:28.360Z,20.75
2017-12-04T10:37:54.613Z,23.87
2017-12-04T10:40:20.864Z,21.25
2017-12-04T10:42:47.108Z,20.52
2017-12-04T10:45:13.416Z,18.67
2017-12-04T10:47:39.734Z,21.08
2017-12-04T10:50:05.996Z,21.02
2017-12-04T10:52:32.641Z,22.20
2017-12-04T10:54:58.905Z,22.55
2017-12-04T10:57:25.183Z,21.52
2017-12-04T10:59:51.585Z,21.20
2017-12-04T11:02:17.844Z,21.25
2017-12-04T11:04:44.134Z,23.00
2017-12-04T11:07:10.417Z,22.67
2017-12-04T11:09:37.081Z,21.77
2017-12-04T11:12:03.300Z,21.08
2017-12-04T11:14:29.562Z,19.58
2017-12-04T11:16:55.830Z,24.83
2017-12-04T11:19:22.804Z,19.98
2017-12-04T11:21:49.053Z,23.85
2017-12-04T11:24:15.353Z,23.50
2017-12-04T11:26:41.575Z,27.60
2017-12-04T11:29:07.821Z,29.80
2017-12-04T11:31:34.328Z,27.27
2017-12-04T11:34:00.972Z,29.92
2017-12-04T11:36:27.573Z,27.50
2017-12-04T11:38:53.838Z,31.23
2017-12-04T11:41:20.115Z,31.77
2017-12-04T11:43:46.336Z,27.27
2017-12-04T11:46:12.654Z,31.15
2017-12-04T11:48:38.945Z,30.45
2017-12-04T11:51:05.576Z,26.20
2017-12-04T11:53:32.159Z,30.25
2017-12-04T11:55:58.372Z,26.62
2017-12-04T11:58:24.587Z,25.70
2017-12-04T12:00:50.837Z,23.65
2017-12-04T12:03:17.059Z,27.70
2017-12-04T12:05:43.301Z,23.02
2017-12-04T12:08:09.514Z,23.92
2017-12-04T12:10:35.798Z,20.42
2017-12-04T12:13:02.005Z,21.80
2017-12-04T12:15:28.240Z,20.98
2017-12-04T12:17:54.433Z,19.98
2017-12-04T12:20:20.703Z,19.67
2017-12-04T12:22:46.903Z,20.70
2017-12-04T12:25:13.151Z,23.38
2017-12-04T12:27:39.364Z,21.95
2017-12-04T12:30:05.600Z,26.00
2017-12-04T12:32:31.805Z,21.50
2017-12-04T12:34:58.053Z,25.67
2017-12-04T12:37:24.618Z,23.73
2017-12-04T12:39:50.842Z,23.62
2017-12-04T12:42:17.087Z,26.12
2017-12-04T12:44:43.286Z,24.95
2017-12-04T12:47:09.541Z,21.55
2017-12-04T12:49:35.793Z,21.08
2017-12-04T12:52:02.048Z,23.38
2017-12-04T12:54:28.264Z,33.92
2017-12-04T12:56:54.526Z,30.70
2017-12-04T12:59:20.772Z,34.53
2017-12-04T13:01:47.393Z,39.92
2017-12-04T13:04:13.588Z,31.17
2017-12-04T13:06:39.901Z,31.85
2017-12-04T13:09:06.129Z,30.90
2017-12-04T13:11:32.357Z,28.95
2017-12-04T13:13:58.593Z,29.48
2017-12-04T13:16:24.805Z,37.47
2017-12-04T13:18:51.870Z,36.20
2017-12-04T13:21:18.095Z,33.30
2017-12-04T13:23:44.299Z,37.17
2017-12-04T13:26:10.925Z,35.00
2017-12-04T13:28:37.496Z,32.55
2017-12-04T13:31:03.765Z,31.40
2017-12-04T13:33:42.283Z,29.30
2017-12-04T13:36:20.920Z,25.30
2017-12-04T13:38:47.127Z,26.17
2017-12-04T13:41:13.341Z,29.23
2017-12-04T13:43:39.572Z,22.35
2017-12-04T13:46:05.877Z,21.83
2017-12-04T13:48:32.131Z,23.38
2017-12-04T13:51:01.424Z,22.37
2017-12-04T13:53:27.654Z,20.80
2017-12-04T13:55:53.936Z,23.92
2017-12-04T13:58:20.589Z,26.15
2017-12-04T14:00:46.839Z,25.45
2017-12-04T14:03:13.092Z,30.17
2017-12-04T14:05:40.006Z,28.40
2017-12-04T14:08:06.223Z,39.80
2017-12-04T14:10:32.462Z,28.98
2017-12-04T14:12:58.689Z,30.90
2017-12-04T14:15:24.893Z,34.97
2017-12-04T14:17:51.139Z,34.15
2017-12-04T14:20:17.381Z,30.70
2017-12-04T14:22:43.623Z,26.90
2017-12-04T14:25:09.859Z,26.02
2017-12-04T14:27:36.082Z,25.75
2017-12-04T14:30:02.324Z,23.70
2017-12-04T14:32:28.624Z,24.27
2017-12-04T14:34:54.881Z,20.98
2017-12-04T14:37:22.359Z,23.50
2017-12-04T14:39:48.914Z,23.48
2017-12-04T14:42:15.161Z,24.95
2017-12-04T14:44:41.392Z,27.85
2017-12-04T14:47:07.687Z,27.17
2017-12-04T14:49:34.823Z,21.80
2017-12-04T14:52:01.473Z,24.15
2017-12-04T14:54:28.088Z,24.75
2017-12-04T14:56:54.349Z,26.10
2017-12-04T14:59:20.614Z,27.90
2017-12-04T15:01:46.893Z,36.35
2017-12-04T15:04:13.152Z,59.42
2017-12-04T15:06:39.441Z,117.22
2017-12-04T15:09:06.120Z,115.55
2017-12-04T15:11:32.438Z,112.18
2017-12-04T15:13:58.769Z,110.22
2017-12-04T15:16:25.007Z,109.85
2017-12-04T15:18:51.270Z,113.05
2017-12-04T15:21:17.512Z,110.60
2017-12-04T15:23:43.779Z,105.68
2017-12-04T15:26:10.032Z,105.22
2017-12-04T15:28:36.326Z,108.87
2017-12-04T15:31:02.961Z,113.50
2017-12-04T15:33:29.577Z,111.57
2017-12-04T15:35:55.843Z,110.47
2017-12-04T15:38:22.148Z,115.35
2017-12-04T15:40:48.458Z,114.30
2017-12-04T15:43:14.750Z,118.55
2017-12-04T15:45:41.039Z,121.60
2017-12-04T15:48:07.299Z,111.57
2017-12-04T15:50:33.544Z,120.07
2017-12-04T15:52:59.784Z,117.43
2017-12-04T15:55:26.089Z,114.40
2017-12-04T15:57:52.406Z,118.97
2017-12-04T16:00:18.651Z,104.55
2017-12-04T16:02:44.918Z,109.63
2017-12-04T16:05:11.194Z,102.65
2017-12-04T16:07:37.461Z,95.75
2017-12-04T16:10:03.707Z,99.78
2017-12-04T16:12:29.959Z,98.40
2017-12-04T16:14:56.238Z,104.70
2017-12-04T16:17:22.468Z,98.45
2017-12-04T16:19:48.713Z,99.45
2017-12-04T16:22:14.941Z,98.18
2017-12-04T16:24:41.214Z,105.28
2017-12-04T16:27:07.491Z,98.90
2017-12-04T16:29:33.785Z,100.25
2017-12-04T16:32:00.013Z,99.47
2017-12-04T16:34:26.287Z,106.57
2017-12-04T16:36:52.537Z,113.60
2017-12-04T16:39:19.141Z,109.07
2017-12-04T16:41:45.411Z,111.03
2017-12-04T16:44:12.089Z,113.18
2017-12-04T16:46:38.353Z,107.20
2017-12-04T16:49:04.653Z,104.12
2017-12-04T16:51:31.642Z,108.35
2017-12-04T16:53:57.952Z,109.37
2017-12-04T16:56:24.215Z,108.32
2017-12-04T16:58:50.498Z,104.30
2017-12-04T17:01:16.761Z,104.32
2017-12-04T17:03:43.083Z,105.63
2017-12-04T17:06:09.359Z,108.50
2017-12-04T17:08:35.628Z,106.68
2017-12-04T17:11:01.872Z,103.10
2017-12-04T17:13:28.159Z,102.57
2017-12-04T17:15:54.451Z,97.97
2017-12-04T17:18:21.927Z,99.20
2017-12-04T17:20:48.545Z,99.87
2017-12-04T17:23:15.160Z,93.65
2017-12-04T17:25:41.437Z,92.47
2017-12-04T17:28:07.676Z,101.35
2017-12-04T17:30:33.984Z,103.03
2017-12-04T17:33:00.268Z,102.15
2017-12-04T17:35:26.511Z,94.20
2017-12-04T17:37:53.274Z,68.25
2017-12-04T17:40:19.527Z,93.32
2017-12-04T17:42:45.764Z,116.07
2017-12-04T17:45:12.039Z,89.90
2017-12-04T17:47:38.728Z,101.50
2017-12-04T17:50:05.026Z,129.77
2017-12-04T17:52:31.300Z,89.82
2017-12-04T17:54:57.541Z,104.12
2017-12-04T17:57:23.793Z,104.10
2017-12-04T17:59:50.438Z,123.62
2017-12-04T18:02:17.092Z,103.62
2017-12-04T18:04:43.378Z,62.05
2017-12-04T18:07:09.705Z,31.52
2017-12-04T18:09:36.012Z,30.65
2017-12-04T18:12:02.276Z,32.30
2017-12-04T18:14:28.556Z,33.53
2017-12-04T18:16:54.853Z,30.00
2017-12-04T18:19:21.520Z,29.12
2017-12-04T18:21:47.880Z,33.83
2017-12-04T18:24:14.157Z,30.60
2017-12-04T18:26:40.849Z,35.20
2017-12-04T18:29:07.157Z,29.80
2017-12-04T18:31:33.491Z,48.87
2017-12-04T18:33:59.787Z,42.55
2017-12-04T18:36:26.144Z,42.08
2017-12-04T18:38:52.423Z,53.17
2017-12-04T18:41:18.732Z,46.75
2017-12-04T18:43:45.076Z,51.30
2017-12-04T18:46:11.753Z,50.67
2017-12-04T18:48:38.056Z,121.32
2017-12-04T18:51:04.314Z,50.15
2017-12-04T18:53:30.716Z,53.90
2017-12-04T18:55:57.000Z,37.67
2017-12-04T18:58:23.289Z,42.70
2017-12-04T19:00:49.957Z,39.97
2017-12-04T19:03:16.278Z,36.67
2017-12-04T19:05:42.581Z,30.75
2017-12-04T19:08:08.860Z,28.45
2017-12-04T19:10:35.175Z,30.08
2017-12-04T19:13:02.342Z,29.80
2017-12-04T19:15:29.766Z,32.63
2017-12-04T19:17:56.072Z,32.17
2017-12-04T19:20:22.855Z,37.65
2017-12-04T19:22:49.153Z,43.10
2017-12-04T19:25:15.897Z,42.15
2017-12-04T19:27:42.591Z,46.05
2017-12-04T19:30:08.932Z,46.47
2017-12-04T19:32:35.273Z,37.50
2017-12-04T19:35:01.622Z,27.45
2017-12-04T19:37:27.923Z,25.75
2017-12-04T19:39:54.270Z,23.92
2017-12-04T19:42:20.634Z,26.33
2017-12-04T19:44:47.024Z,26.02
2017-12-04T19:47:13.342Z,25.98
2017-12-04T19:49:39.694Z,27.17
2017-12-04T19:52:06.405Z,33.70
2017-12-04T19:54:32.748Z,24.90
2017-12-04T19:56:58.997Z,30.52
2017-12-04T19:59:25.666Z,39.65
2017-12-04T20:01:51.998Z,34.30
2017-12-04T20:04:18.325Z,30.92
2017-12-04T20:06:44.817Z,27.90
2017-12-04T20:09:11.136Z,25.77
2017-12-04T20:11:37.399Z,24.10
2017-12-04T20:14:04.078Z,23.15
2017-12-04T20:16:31.232Z,23.27
2017-12-04T20:18:57.488Z,18.75
2017-12-04T20:21:23.837Z,25.08
2017-12-04T20:23:50.512Z,25.23
2017-12-04T20:26:16.822Z,39.83
2017-12-04T20:28:43.101Z,49.40
2017-12-04T20:31:09.384Z,43.22
2017-12-04T20:33:35.735Z,49.63
2017-12-04T20:36:02.019Z,27.95
2017-12-04T20:38:28.722Z,26.60
2017-12-04T20:40:55.044Z,24.58
2017-12-04T20:43:21.394Z,27.52
2017-12-04T20:45:47.690Z,27.92
2017-12-04T20:48:13.974Z,23.67
2017-12-04T20:50:40.252Z,24.40
2017-12-04T20:53:06.511Z,25.98
2017-12-04T20:55:33.118Z,25.20
2017-12-04T20:57:59.423Z,24.65
2017-12-04T21:00:25.721Z,26.67
2017-12-04T21:02:52.056Z,21.15
2017-12-04T21:05:18.350Z,18.12
2017-12-04T21:07:49.506Z,22.70
2017-12-04T21:10:28.340Z,21.42
2017-12-04T21:13:06.700Z,20.70
2017-12-04T21:18:27.891Z,20.60
2017-12-04T21:20:54.200Z,22.25
2017-12-04T21:23:20.507Z,19.33
2017-12-04T21:25:46.785Z,21.70
2017-12-04T21:28:13.089Z,19.02
2017-12-04T21:30:39.367Z,21.00
2017-12-04T21:33:05.668Z,24.25
2017-12-04T21:35:32.002Z,21.90
2017-12-04T21:37:58.279Z,21.73
2017-12-04T21:40:24.665Z,26.30
2017-12-04T21:42:50.962Z,26.70
2017-12-04T21:45:17.274Z,20.67
2017-12-04T21:47:43.571Z,21.92
2017-12-04T21:50:10.208Z,18.73
2017-12-04T21:52:36.836Z,21.65
2017-12-04T21:55:03.531Z,16.87
2017-12-04T21:57:29.850Z,15.07
2017-12-04T21:59:56.064Z,17.08
2017-12-04T22:02:22.327Z,19.33
2017-12-04T22:04:48.622Z,18.55
2017-12-04T22:07:14.868Z,15.88
2017-12-04T22:09:41.118Z,18.27
2017-12-04T22:12:07.434Z,20.58
2017-12-04T22:14:33.786Z,16.35
2017-12-04T22:17:00.061Z,20.58
2017-12-04T22:19:26.345Z,19.52
2017-12-04T22:21:52.616Z,22.70
2017-12-04T22:24:18.853Z,26.23
2017-12-04T22:26:45.133Z,30.17
2017-12-04T22:29:11.387Z,35.63
2017-12-04T22:31:37.647Z,48.33
2017-12-04T22:34:03.927Z,35.45
2017-12-04T22:36:30.185Z,33.40
2017-12-04T22:38:56.415Z,21.25
2017-12-04T22:41:22.675Z,19.37
2017-12-04T22:43:48.957Z,14.18
2017-12-04T22:46:15.220Z,16.62
2017-12-04T22:48:41.508Z,17.95
2017-12-04T22:51:08.139Z,16.60
2017-12-04T22:53:34.429Z,14.93
2017-12-04T22:56:00.639Z,12.07
2017-12-04T22:58:26.904Z,14.87
2017-12-04T23:00:53.168Z,11.80
2017-12-04T23:03:19.428Z,17.02
2017-12-04T23:05:45.721Z,16.17
2017-12-04T23:08:13.352Z,20.27
2017-12-04T23:10:39.984Z,15.00
2017-12-04T23:13:06.233Z,16.52
2017-12-04T23:15:32.464Z,18.83
2017-12-04T23:17:58.720Z,15.75
2017-12-04T23:20:25.384Z,15.32
2017-12-04T23:22:51.633Z,14.02
2017-12-04T23:25:18.511Z,15.38
2017-12-04T23:27:44.776Z,13.52
2017-12-04T23:30:11.029Z,13.23
2017-12-04T23:32:37.259Z,14.20
2017-12-04T23:35:03.522Z,14.73
2017-12-04T23:37:29.779Z,17.37
2017-12-04T23:39:56.040Z,12.80
2017-12-04T23:42:22.681Z,11.12
2017-12-04T23:44:48.899Z,15.00
2017-12-04T23:47:15.136Z,17.17
2017-12-04T23:49:41.371Z,15.55
2017-12-04T23:52:07.606Z,14.02
2017-12-04T23:54:33.844Z,13.02
2017-12-04T23:57:00.064Z,11.23
2017-12-04T23:59:26.278Z,16.12
